createdAt,value
2018-07-08T00:00:29.603Z,15.7
2018-07-08T00:01:29.054Z,15.72
2018-07-08T00:02:29.615Z,15.66
2018-07-08T00:03:29.032Z,15.75
2018-07-08T00:04:29.287Z,15.76
2018-07-08T00:05:29.529Z,15.7
2018-07-08T00:06:29.255Z,15.72
2018-07-08T00:07:29.505Z,15.74
2018-07-08T00:08:29.495Z,15.68
2018-07-08T00:09:29.225Z,15.74
2018-07-08T00:10:28.939Z,15.68
2018-07-08T00:11:29.461Z,15.74
2018-07-08T00:12:29.443Z,15.74
2018-07-08T00:13:29.439Z,15.79
2018-07-08T00:14:29.154Z,15.74
2018-07-08T00:15:28.878Z,15.68
2018-07-08T00:16:29.404Z,15.75
2018-07-08T00:17:29.115Z,15.66
2018-07-08T00:18:29.372Z,15.63
2018-07-08T00:19:28.830Z,15.7
2018-07-08T00:20:29.341Z,15.7
2018-07-08T00:21:28.805Z,15.61
2018-07-08T00:22:29.060Z,15.56
2018-07-08T00:23:29.044Z,15.67
2018-07-08T00:24:29.304Z,15.57
2018-07-08T00:25:29.283Z,15.63
2018-07-08T00:26:28.750Z,15.52
2018-07-08T00:27:29.018Z,15.52
2018-07-08T00:28:28.719Z,15.54
2018-07-08T00:29:28.966Z,15.57
2018-07-08T00:30:29.219Z,15.48
2018-07-08T00:31:28.947Z,15.45
2018-07-08T00:32:28.660Z,15.45
2018-07-08T00:33:28.918Z,15.41
2018-07-08T00:34:28.900Z,15.31
2018-07-08T00:35:28.629Z,15.42
2018-07-08T00:36:28.873Z,15.36
2018-07-08T00:37:29.135Z,15.33
2018-07-08T00:38:28.848Z,15.33
2018-07-08T00:39:28.576Z,15.39
2018-07-08T00:40:28.830Z,15.41
2018-07-08T00:41:29.082Z,15.3
2018-07-08T00:42:28.541Z,15.28
2018-07-08T00:43:28.788Z,15.24
2018-07-08T00:44:29.037Z,15.24
2018-07-08T00:45:29.033Z,15.3
2018-07-08T00:46:28.494Z,15.3
2018-07-08T00:47:28.738Z,15.23
2018-07-08T00:48:28.989Z,15.23
2018-07-08T00:49:28.447Z,15.23
2018-07-08T00:50:28.968Z,15.17
2018-07-08T00:51:28.696Z,15.19
2018-07-08T00:52:28.685Z,15.13
2018-07-08T00:53:28.927Z,15.17
2018-07-08T00:54:28.648Z,15.17
2018-07-08T00:55:28.636Z,15.15
2018-07-08T00:56:28.897Z,15.17
2018-07-08T00:57:28.873Z,15.09
2018-07-08T00:58:28.869Z,15.05
2018-07-08T00:59:28.851Z,15.08
2018-07-08T01:00:28.574Z,15.06
2018-07-08T01:01:28.821Z,15.06
2018-07-08T01:02:28.810Z,15.06
2018-07-08T01:03:28.534Z,14.99
2018-07-08T01:04:28.780Z,15.02
2018-07-08T01:05:28.508Z,15.02
2018-07-08T01:06:28.491Z,14.94
2018-07-08T01:07:28.485Z,14.91
2018-07-08T01:08:28.211Z,14.94
2018-07-08T01:09:28.193Z,14.86
2018-07-08T01:10:28.442Z,14.83
2018-07-08T01:11:28.445Z,14.78
2018-07-08T01:12:28.682Z,14.75
2018-07-08T01:13:28.410Z,14.65
2018-07-08T01:14:28.657Z,14.74
2018-07-08T01:15:28.644Z,14.69
2018-07-08T01:16:28.628Z,14.67
2018-07-08T01:17:28.611Z,14.54
2018-07-08T01:18:28.353Z,14.54
2018-07-08T01:19:28.323Z,14.52
2018-07-08T01:20:28.311Z,14.54
2018-07-08T01:21:28.559Z,14.53
2018-07-08T01:22:28.023Z,14.47
2018-07-08T01:23:28.006Z,14.43
2018-07-08T01:24:27.994Z,14.46
2018-07-08T01:25:28.250Z,14.46
2018-07-08T01:26:28.564Z,14.47
2018-07-08T01:27:28.228Z,14.35
2018-07-08T01:28:28.470Z,14.38
2018-07-08T01:29:28.200Z,14.31
2018-07-08T01:30:28.177Z,14.32
2018-07-08T01:31:28.165Z,14.38
2018-07-08T01:32:28.420Z,14.35
2018-07-08T01:33:28.142Z,14.29
2018-07-08T01:34:28.402Z,14.35
2018-07-08T01:35:27.849Z,14.31
2018-07-08T01:36:28.104Z,14.27
2018-07-08T01:37:28.077Z,14.25
2018-07-08T01:38:27.806Z,14.31
2018-07-08T01:39:27.795Z,14.28
2018-07-08T01:40:28.318Z,14.31
2018-07-08T01:41:27.769Z,14.31
2018-07-08T01:42:28.045Z,14.39
2018-07-08T01:43:28.004Z,14.27
2018-07-08T01:44:28.681Z,14.25
2018-07-08T01:45:27.991Z,14.24
2018-07-08T01:46:28.166Z,14.31
2018-07-08T01:47:27.951Z,14.25
2018-07-08T01:48:27.938Z,14.21
2018-07-08T01:49:28.197Z,14.13
2018-07-08T01:50:28.180Z,14.13
2018-07-08T01:51:27.896Z,14.12
2018-07-08T01:52:27.888Z,14.19
2018-07-08T01:53:27.875Z,14.2
2018-07-08T01:54:28.119Z,14.14
2018-07-08T01:55:28.114Z,14.07
2018-07-08T01:56:28.106Z,14.04
2018-07-08T01:57:27.813Z,14.01
2018-07-08T01:58:28.070Z,14.01
2018-07-08T01:59:28.106Z,14.01
2018-07-08T02:00:28.039Z,13.94
2018-07-08T02:01:27.766Z,13.91
2018-07-08T02:02:27.752Z,13.95
2018-07-08T02:03:28.000Z,13.95
2018-07-08T02:04:27.455Z,13.87
2018-07-08T02:05:27.982Z,13.79
2018-07-08T02:06:27.691Z,13.81
2018-07-08T02:07:27.957Z,13.84
2018-07-08T02:08:27.398Z,13.8
2018-07-08T02:09:27.652Z,13.79
2018-07-08T02:10:27.635Z,13.89
2018-07-08T02:11:27.634Z,13.81
2018-07-08T02:12:27.882Z,13.87
2018-07-08T02:13:27.866Z,13.81
2018-07-08T02:14:27.318Z,13.81
2018-07-08T02:15:27.832Z,13.76
2018-07-08T02:16:27.559Z,13.76
2018-07-08T02:17:27.536Z,13.73
2018-07-08T02:18:27.789Z,13.71
2018-07-08T02:19:27.255Z,13.69
2018-07-08T02:20:27.237Z,13.74
2018-07-08T02:21:27.492Z,13.76
2018-07-08T02:22:27.745Z,13.65
2018-07-08T02:23:27.769Z,13.69
2018-07-08T02:24:27.707Z,13.61
2018-07-08T02:25:27.434Z,13.62
2018-07-08T02:26:27.685Z,13.65
2018-07-08T02:27:27.664Z,13.62
2018-07-08T02:28:27.653Z,13.52
2018-07-08T02:29:27.376Z,13.54
2018-07-08T02:30:27.629Z,13.55
2018-07-08T02:31:27.103Z,13.56
2018-07-08T02:32:27.331Z,13.55
2018-07-08T02:33:27.588Z,13.47
2018-07-08T02:34:27.595Z,13.52
2018-07-08T02:35:27.560Z,13.49
2018-07-08T02:36:27.539Z,13.52
2018-07-08T02:37:27.527Z,13.43
2018-07-08T02:38:27.514Z,13.46
2018-07-08T02:39:27.247Z,13.43
2018-07-08T02:40:27.231Z,13.47
2018-07-08T02:41:27.208Z,13.41
2018-07-08T02:42:27.463Z,13.32
2018-07-08T02:43:27.177Z,13.4
2018-07-08T02:44:27.166Z,13.3
2018-07-08T02:45:27.423Z,13.41
2018-07-08T02:46:27.140Z,13.27
2018-07-08T02:47:27.388Z,13.24
2018-07-08T02:48:27.378Z,13.21
2018-07-08T02:49:27.107Z,13.29
2018-07-08T02:50:27.348Z,13.22
2018-07-08T02:51:27.072Z,13.22
2018-07-08T02:52:27.066Z,13.24
2018-07-08T02:53:27.307Z,13.18
2018-07-08T02:54:26.802Z,13.24
2018-07-08T02:55:27.282Z,13.14
2018-07-08T02:56:27.020Z,13.2
2018-07-08T02:57:27.252Z,13.14
2018-07-08T02:58:26.982Z,13.09
2018-07-08T02:59:27.219Z,13.17
2018-07-08T03:00:26.977Z,13.06
2018-07-08T03:01:27.208Z,13.09
2018-07-08T03:02:27.174Z,13.12
2018-07-08T03:03:27.164Z,13.03
2018-07-08T03:04:26.633Z,13.04
2018-07-08T03:05:26.889Z,13.06
2018-07-08T03:06:27.124Z,13.02
2018-07-08T03:07:27.120Z,12.96
2018-07-08T03:08:27.087Z,12.92
2018-07-08T03:09:26.830Z,12.96
2018-07-08T03:10:27.062Z,12.88
2018-07-08T03:11:26.781Z,12.89
2018-07-08T03:12:27.032Z,12.95
2018-07-08T03:13:27.020Z,12.87
2018-07-08T03:14:26.736Z,12.92
2018-07-08T03:15:27.141Z,12.89
2018-07-08T03:16:26.713Z,12.89
2018-07-08T03:17:26.963Z,12.88
2018-07-08T03:18:26.682Z,12.85
2018-07-08T03:19:26.664Z,12.85
2018-07-08T03:20:26.387Z,12.89
2018-07-08T03:21:26.898Z,12.85
2018-07-08T03:22:26.624Z,12.93
2018-07-08T03:23:26.869Z,12.82
2018-07-08T03:24:26.337Z,12.88
2018-07-08T03:25:26.779Z,12.84
2018-07-08T03:26:26.567Z,12.95
2018-07-08T03:27:26.547Z,12.93
2018-07-08T03:28:26.529Z,12.82
2018-07-08T03:29:26.523Z,12.88
2018-07-08T03:30:26.783Z,12.87
2018-07-08T03:31:26.765Z,12.88
2018-07-08T03:32:26.481Z,12.88
2018-07-08T03:33:26.515Z,12.84
2018-07-08T03:34:26.447Z,12.79
2018-07-08T03:35:26.703Z,12.77
2018-07-08T03:36:26.423Z,12.79
2018-07-08T03:37:26.673Z,12.75
2018-07-08T03:38:26.121Z,12.69
2018-07-08T03:39:26.645Z,12.7
2018-07-08T03:40:26.625Z,12.82
2018-07-08T03:41:26.349Z,12.74
2018-07-08T03:42:26.600Z,12.79
2018-07-08T03:43:26.322Z,12.77
2018-07-08T03:44:26.300Z,12.78
2018-07-08T03:45:26.559Z,12.79
2018-07-08T03:46:26.738Z,12.78
2018-07-08T03:47:26.259Z,12.78
2018-07-08T03:48:26.519Z,12.85
2018-07-08T03:49:26.502Z,12.74
2018-07-08T03:50:25.950Z,12.79
2018-07-08T03:51:26.469Z,12.82
2018-07-08T03:52:26.454Z,12.71
2018-07-08T03:53:26.433Z,12.75
2018-07-08T03:54:26.154Z,12.79
2018-07-08T03:55:26.407Z,12.82
2018-07-08T03:56:26.396Z,12.69
2018-07-08T03:57:26.125Z,12.82
2018-07-08T03:58:25.837Z,12.74
2018-07-08T03:59:26.084Z,12.7
2018-07-08T04:00:26.073Z,12.71
2018-07-08T04:01:26.055Z,12.74
2018-07-08T04:02:26.309Z,12.75
2018-07-08T04:03:26.294Z,12.78
2018-07-08T04:04:26.273Z,12.71
2018-07-08T04:05:26.258Z,12.74
2018-07-08T04:06:26.252Z,12.7
2018-07-08T04:07:25.965Z,12.7
2018-07-08T04:08:26.218Z,12.7
2018-07-08T04:09:26.205Z,12.75
2018-07-08T04:10:25.930Z,12.81
2018-07-08T04:11:26.172Z,12.85
2018-07-08T04:12:26.162Z,12.82
2018-07-08T04:13:25.889Z,12.87
2018-07-08T04:14:25.917Z,12.88
2018-07-08T04:15:25.594Z,13.03
2018-07-08T04:16:26.097Z,12.95
2018-07-08T04:17:26.099Z,12.96
2018-07-08T04:18:26.075Z,12.97
2018-07-08T04:19:25.527Z,12.99
2018-07-08T04:20:25.521Z,13.02
2018-07-08T04:21:25.504Z,13.11
2018-07-08T04:22:26.015Z,13.07
2018-07-08T04:23:25.737Z,13.03
2018-07-08T04:24:25.456Z,13.15
2018-07-08T04:25:25.973Z,13.09
2018-07-08T04:26:25.958Z,13.17
2018-07-08T04:27:25.684Z,13.06
2018-07-08T04:28:25.670Z,13.06
2018-07-08T04:29:25.646Z,13.17
2018-07-08T04:30:25.826Z,13.2
2018-07-08T04:31:25.622Z,13.12
2018-07-08T04:32:25.877Z,13.14
2018-07-08T04:33:25.592Z,13.25
2018-07-08T04:34:25.575Z,13.22
2018-07-08T04:35:25.828Z,13.2
2018-07-08T04:36:25.820Z,13.17
2018-07-08T04:37:25.535Z,13.25
2018-07-08T04:38:25.528Z,13.29
2018-07-08T04:39:25.764Z,13.21
2018-07-08T04:40:25.756Z,13.2
2018-07-08T04:41:25.735Z,13.3
2018-07-08T04:42:25.193Z,13.25
2018-07-08T04:43:25.723Z,13.3
2018-07-08T04:44:25.432Z,13.27
2018-07-08T04:45:25.162Z,13.3
2018-07-08T04:46:25.406Z,13.33
2018-07-08T04:47:25.387Z,13.3
2018-07-08T04:48:25.645Z,13.41
2018-07-08T04:49:25.875Z,13.47
2018-07-08T04:50:25.345Z,13.52
2018-07-08T04:51:25.611Z,13.59
2018-07-08T04:52:25.323Z,13.61
2018-07-08T04:53:25.565Z,13.65
2018-07-08T04:54:25.286Z,13.76
2018-07-08T04:55:25.014Z,13.76
2018-07-08T04:56:25.263Z,13.83
2018-07-08T04:57:24.984Z,13.88
2018-07-08T04:58:24.971Z,13.79
2018-07-08T04:59:25.491Z,13.8
2018-07-08T05:00:25.204Z,13.87
2018-07-08T05:01:25.200Z,13.84
2018-07-08T05:02:24.922Z,13.87
2018-07-08T05:03:25.425Z,13.89
2018-07-08T05:04:25.430Z,13.95
2018-07-08T05:05:25.417Z,13.95
2018-07-08T05:06:25.457Z,14.02
2018-07-08T05:07:24.851Z,14.04
2018-07-08T05:08:25.098Z,14.12
2018-07-08T05:09:25.086Z,14.06
2018-07-08T05:10:25.330Z,14.04
2018-07-08T05:11:25.324Z,14.14
2018-07-08T05:12:25.043Z,14.24
2018-07-08T05:13:25.296Z,14.2
2018-07-08T05:14:25.031Z,14.16
2018-07-08T05:15:25.002Z,14.17
2018-07-08T05:16:24.722Z,14.25
2018-07-08T05:17:25.234Z,14.28
2018-07-08T05:18:25.220Z,14.27
2018-07-08T05:19:24.675Z,14.2
2018-07-08T05:20:25.357Z,14.34
2018-07-08T05:21:24.915Z,14.35
2018-07-08T05:22:25.170Z,14.39
2018-07-08T05:23:25.155Z,14.32
2018-07-08T05:24:24.871Z,14.49
2018-07-08T05:25:24.861Z,14.46
2018-07-08T05:26:24.845Z,14.53
2018-07-08T05:27:25.100Z,14.49
2018-07-08T05:28:24.820Z,14.5
2018-07-08T05:29:25.067Z,14.49
2018-07-08T05:30:24.804Z,14.5
2018-07-08T05:31:24.777Z,14.47
2018-07-08T05:32:25.036Z,14.52
2018-07-08T05:33:25.027Z,14.61
2018-07-08T05:34:24.746Z,14.49
2018-07-08T05:35:24.732Z,14.61
2018-07-08T05:36:24.977Z,14.56
2018-07-08T05:37:24.705Z,14.64
2018-07-08T05:38:24.417Z,14.67
2018-07-08T05:39:24.409Z,14.67
2018-07-08T05:40:24.393Z,14.75
2018-07-08T05:41:24.913Z,14.71
2018-07-08T05:42:24.635Z,14.75
2018-07-08T05:43:24.618Z,14.81
2018-07-08T05:44:24.875Z,14.88
2018-07-08T05:45:24.867Z,14.91
2018-07-08T05:46:25.042Z,14.93
2018-07-08T05:47:24.832Z,14.99
2018-07-08T05:48:24.558Z,15.03
2018-07-08T05:49:24.545Z,15.01
2018-07-08T05:50:24.878Z,15.05
2018-07-08T05:51:24.781Z,15.12
2018-07-08T05:52:24.773Z,15.08
2018-07-08T05:53:24.486Z,15.13
2018-07-08T05:54:24.472Z,15.2
2018-07-08T05:55:24.461Z,15.26
2018-07-08T05:56:24.729Z,15.27
2018-07-08T05:57:24.701Z,15.35
2018-07-08T05:58:24.681Z,15.36
2018-07-08T05:59:24.415Z,15.3
2018-07-08T06:00:24.658Z,15.41
2018-07-08T06:01:24.391Z,15.33
2018-07-08T06:02:24.629Z,15.41
2018-07-08T06:03:24.619Z,15.43
2018-07-08T06:04:24.611Z,15.51
2018-07-08T06:05:24.331Z,15.49
2018-07-08T06:06:24.589Z,15.56
2018-07-08T06:07:24.309Z,15.49
2018-07-08T06:08:24.553Z,15.6
2018-07-08T06:09:24.541Z,15.63
2018-07-08T06:10:24.266Z,15.63
2018-07-08T06:11:24.249Z,15.64
2018-07-08T06:12:24.238Z,15.76
2018-07-08T06:13:24.241Z,15.72
2018-07-08T06:14:24.473Z,15.72
2018-07-08T06:15:24.554Z,15.72
2018-07-08T06:16:24.193Z,15.74
2018-07-08T06:17:24.186Z,15.88
2018-07-08T06:18:24.437Z,16.01
2018-07-08T06:19:24.161Z,16.09
2018-07-08T06:20:24.146Z,16.2
2018-07-08T06:21:24.129Z,16.23
2018-07-08T06:22:24.113Z,16.27
2018-07-08T06:23:24.103Z,16.3
2018-07-08T06:24:24.358Z,16.37
2018-07-08T06:25:23.816Z,16.53
2018-07-08T06:26:24.063Z,16.56
2018-07-08T06:27:24.051Z,16.62
2018-07-08T06:28:24.309Z,16.71
2018-07-08T06:29:23.767Z,16.68
2018-07-08T06:30:23.753Z,16.86
2018-07-08T06:31:24.274Z,16.75
2018-07-08T06:32:23.998Z,16.8
2018-07-08T06:33:24.249Z,16.7
2018-07-08T06:34:23.973Z,16.78
2018-07-08T06:35:24.220Z,16.89
2018-07-08T06:36:24.216Z,16.86
2018-07-08T06:37:23.672Z,16.89
2018-07-08T06:38:23.923Z,16.85
2018-07-08T06:39:23.917Z,16.93
2018-07-08T06:40:23.948Z,16.98
2018-07-08T06:41:23.892Z,16.93
2018-07-08T06:42:24.146Z,17.03
2018-07-08T06:43:24.132Z,17.03
2018-07-08T06:44:23.856Z,17.14
2018-07-08T06:45:23.845Z,17.1
2018-07-08T06:46:23.570Z,16.98
2018-07-08T06:47:24.089Z,17.07
2018-07-08T06:48:23.811Z,17.14
2018-07-08T06:49:23.796Z,17.1
2018-07-08T06:50:23.789Z,17.1
2018-07-08T06:51:24.040Z,17.1
2018-07-08T06:52:23.765Z,17.15
2018-07-08T06:53:23.759Z,17.11
2018-07-08T06:54:23.743Z,17.13
2018-07-08T06:55:23.992Z,17.07
2018-07-08T06:56:23.458Z,17.18
2018-07-08T06:57:23.967Z,17.23
2018-07-08T06:58:23.964Z,17.32
2018-07-08T06:59:23.687Z,17.38
2018-07-08T07:00:23.417Z,17.54
2018-07-08T07:01:23.936Z,17.69
2018-07-08T07:02:23.922Z,18.17
2018-07-08T07:03:23.642Z,18.59
2018-07-08T07:04:23.647Z,19.24
2018-07-08T07:05:23.890Z,19.53
2018-07-08T07:06:23.886Z,19.87
2018-07-08T07:07:23.870Z,20.13
2018-07-08T07:08:23.860Z,20.39
2018-07-08T07:09:23.855Z,20.77
2018-07-08T07:10:23.574Z,20.86
2018-07-08T07:11:23.573Z,20.96
2018-07-08T07:12:23.823Z,21.01
2018-07-08T07:13:23.285Z,21.13
2018-07-08T07:14:23.544Z,21.23
2018-07-08T07:15:23.791Z,21.21
2018-07-08T07:16:23.517Z,21.27
2018-07-08T07:17:23.573Z,21.44
2018-07-08T07:18:23.775Z,21.54
2018-07-08T07:19:23.494Z,21.53
2018-07-08T07:20:23.761Z,21.6
2018-07-08T07:21:23.746Z,21.74
2018-07-08T07:22:23.739Z,21.63
2018-07-08T07:23:23.728Z,21.5
2018-07-08T07:24:23.456Z,21.5
2018-07-08T07:25:23.454Z,21.56
2018-07-08T07:26:23.708Z,21.63
2018-07-08T07:27:23.440Z,21.56
2018-07-08T07:28:23.703Z,21.53
2018-07-08T07:29:23.428Z,21.34
2018-07-08T07:30:23.426Z,21.41
2018-07-08T07:31:23.420Z,21.56
2018-07-08T07:32:23.679Z,21.66
2018-07-08T07:33:23.409Z,21.72
2018-07-08T07:34:23.409Z,22.02
2018-07-08T07:35:23.403Z,22.62
2018-07-08T07:36:23.395Z,23.34
2018-07-08T07:37:23.892Z,24.34
2018-07-08T07:38:23.660Z,25.07
2018-07-08T07:39:23.383Z,25.86
2018-07-08T07:40:23.381Z,26.42
2018-07-08T07:41:23.649Z,26.62
2018-07-08T07:42:23.377Z,27.02
2018-07-08T07:43:23.374Z,27.42
2018-07-08T07:44:23.371Z,28.06
2018-07-08T07:45:23.491Z,28.16
2018-07-08T07:46:24.237Z,28.46
2018-07-08T07:47:23.380Z,28.78
2018-07-08T07:48:23.636Z,28.97
2018-07-08T07:49:23.355Z,29.18
2018-07-08T07:50:23.358Z,29.38
2018-07-08T07:51:23.455Z,29.55
2018-07-08T07:52:23.088Z,29.7
2018-07-08T07:53:23.611Z,29.71
2018-07-08T07:54:23.611Z,29.74
2018-07-08T07:55:23.613Z,29.87
2018-07-08T07:56:23.355Z,30.08
2018-07-08T07:57:23.612Z,30.29
2018-07-08T07:58:23.343Z,30.45
2018-07-08T07:59:23.610Z,30.59
2018-07-08T08:00:23.602Z,30.29
2018-07-08T08:01:23.611Z,30.45
2018-07-08T08:02:23.074Z,30.76
2018-07-08T08:03:23.598Z,30.71
2018-07-08T08:04:23.603Z,30.78
2018-07-08T08:05:23.335Z,30.54
2018-07-08T08:06:23.601Z,30.52
2018-07-08T08:07:23.337Z,30.57
2018-07-08T08:08:23.615Z,30.36
2018-07-08T08:09:23.337Z,30.68
2018-07-08T08:10:23.603Z,30.98
2018-07-08T08:11:23.068Z,31.04
2018-07-08T08:12:23.594Z,31.04
2018-07-08T08:13:23.593Z,30.98
2018-07-08T08:14:23.069Z,31.11
2018-07-08T08:15:23.335Z,31.2
2018-07-08T08:16:23.340Z,31.36
2018-07-08T08:17:23.600Z,31.54
2018-07-08T08:18:23.334Z,31.42
2018-07-08T08:19:23.338Z,31.35
2018-07-08T08:20:23.337Z,31.3
2018-07-08T08:21:23.600Z,31.45
2018-07-08T08:22:23.341Z,31.49
2018-07-08T08:23:23.599Z,31.53
2018-07-08T08:24:23.608Z,31.85
2018-07-08T08:25:23.609Z,31.98
2018-07-08T08:26:23.811Z,31.75
2018-07-08T08:27:23.609Z,31.67
2018-07-08T08:28:23.349Z,31.31
2018-07-08T08:29:23.345Z,31.15
2018-07-08T08:30:23.616Z,31.31
2018-07-08T08:31:23.614Z,31.05
2018-07-08T08:32:23.349Z,30.54
2018-07-08T08:33:23.610Z,30.07
2018-07-08T08:34:23.093Z,29.78
2018-07-08T08:35:23.627Z,29.37
2018-07-08T08:36:23.357Z,29.03
2018-07-08T08:37:23.351Z,28.51
2018-07-08T08:38:23.786Z,28.03
2018-07-08T08:39:23.350Z,27.32
2018-07-08T08:40:23.373Z,26.95
2018-07-08T08:41:23.613Z,27.19
2018-07-08T08:42:23.346Z,27.14
2018-07-08T08:43:23.081Z,27.02
2018-07-08T08:44:23.350Z,26.67
2018-07-08T08:45:23.079Z,26.24
2018-07-08T08:46:23.615Z,25.87
2018-07-08T08:47:23.081Z,25.54
2018-07-08T08:48:23.611Z,25.31
2018-07-08T08:49:23.331Z,25.19
2018-07-08T08:50:23.595Z,25.02
2018-07-08T08:51:23.333Z,24.64
2018-07-08T08:52:23.372Z,24.44
2018-07-08T08:53:23.584Z,24.17
2018-07-08T08:54:23.320Z,24.05
2018-07-08T08:55:23.049Z,23.9
2018-07-08T08:56:23.320Z,23.8
2018-07-08T08:57:23.566Z,23.5
2018-07-08T08:58:23.407Z,23.23
2018-07-08T08:59:23.303Z,23.12
2018-07-08T09:00:23.561Z,23.04
2018-07-08T09:01:23.299Z,23.02
2018-07-08T09:02:23.560Z,23.11
2018-07-08T09:03:23.020Z,23.62
2018-07-08T09:04:23.292Z,24.04
2018-07-08T09:05:23.280Z,24.32
2018-07-08T09:06:23.277Z,24.49
2018-07-08T09:07:23.279Z,24.71
2018-07-08T09:08:23.012Z,25.07
2018-07-08T09:09:23.545Z,25.77
2018-07-08T09:10:23.276Z,26.32
2018-07-08T09:11:23.288Z,26.84
2018-07-08T09:12:23.537Z,27.43
2018-07-08T09:13:23.532Z,27.96
2018-07-08T09:14:23.287Z,28.25
2018-07-08T09:15:23.541Z,28.35
2018-07-08T09:16:23.270Z,28.35
2018-07-08T09:17:23.783Z,28.03
2018-07-08T09:18:23.274Z,27.5
2018-07-08T09:19:23.281Z,27.26
2018-07-08T09:20:23.272Z,26.89
2018-07-08T09:21:23.279Z,26.62
2018-07-08T09:22:23.002Z,26.09
2018-07-08T09:23:23.272Z,25.72
2018-07-08T09:24:23.269Z,25.34
2018-07-08T09:25:23.265Z,25.32
2018-07-08T09:26:23.263Z,25.19
2018-07-08T09:27:23.263Z,25.22
2018-07-08T09:28:23.000Z,25.37
2018-07-08T09:29:23.428Z,25.56
2018-07-08T09:30:23.521Z,25.99
2018-07-08T09:31:23.260Z,26.15
2018-07-08T09:32:22.995Z,26.21
2018-07-08T09:33:23.261Z,25.94
2018-07-08T09:34:23.255Z,25.64
2018-07-08T09:35:23.252Z,25.57
2018-07-08T09:36:23.515Z,25.43
2018-07-08T09:37:23.254Z,25.47
2018-07-08T09:38:23.512Z,25.35
2018-07-08T09:39:23.449Z,25.22
2018-07-08T09:40:23.246Z,25.32
2018-07-08T09:41:23.254Z,25.44
2018-07-08T09:42:23.244Z,25.42
2018-07-08T09:43:23.507Z,25.69
2018-07-08T09:44:23.511Z,25.71
2018-07-08T09:45:23.512Z,25.64
2018-07-08T09:46:23.242Z,25.39
2018-07-08T09:47:23.236Z,25.17
2018-07-08T09:48:23.503Z,25.07
2018-07-08T09:49:23.234Z,24.92
2018-07-08T09:50:23.497Z,24.56
2018-07-08T09:51:23.491Z,24.45
2018-07-08T09:52:23.224Z,24.34
2018-07-08T09:53:23.225Z,24.24
2018-07-08T09:54:23.216Z,24.2
2018-07-08T09:55:23.478Z,24.32
2018-07-08T09:56:23.216Z,24.35
2018-07-08T09:57:23.218Z,24.29
2018-07-08T09:58:23.200Z,24.22
2018-07-08T09:59:23.469Z,24.1
2018-07-08T10:00:23.459Z,24.05
2018-07-08T10:01:23.455Z,24
2018-07-08T10:02:23.453Z,23.83
2018-07-08T10:03:23.451Z,23.86
2018-07-08T10:04:23.196Z,23.75
2018-07-08T10:05:23.463Z,23.76
2018-07-08T10:06:23.436Z,23.53
2018-07-08T10:07:23.428Z,23.45
2018-07-08T10:08:23.424Z,23.47
2018-07-08T10:09:23.429Z,23.42
2018-07-08T10:10:23.151Z,23.26
2018-07-08T10:11:23.407Z,23.26
2018-07-08T10:12:23.166Z,23.26
2018-07-08T10:13:22.882Z,23.34
2018-07-08T10:14:23.395Z,23.47
2018-07-08T10:15:23.388Z,23.47
2018-07-08T10:16:23.238Z,23.65
2018-07-08T10:17:23.544Z,23.72
2018-07-08T10:18:22.842Z,23.75
2018-07-08T10:19:23.538Z,23.67
2018-07-08T10:20:23.376Z,23.77
2018-07-08T10:21:23.140Z,23.89
2018-07-08T10:22:23.090Z,23.95
2018-07-08T10:23:23.085Z,23.92
2018-07-08T10:24:23.337Z,24.07
2018-07-08T10:25:23.503Z,24.42
2018-07-08T10:26:22.806Z,24.64
2018-07-08T10:27:23.063Z,24.79
2018-07-08T10:28:23.333Z,25.05
2018-07-08T10:29:23.056Z,25.53
2018-07-08T10:30:23.210Z,26.02
2018-07-08T10:31:23.052Z,26.22
2018-07-08T10:32:23.072Z,26.37
2018-07-08T10:33:22.786Z,26.54
2018-07-08T10:34:22.796Z,26.95
2018-07-08T10:35:23.052Z,27.71
2018-07-08T10:36:23.048Z,28.04
2018-07-08T10:37:23.317Z,28.59
2018-07-08T10:38:23.174Z,29.11
2018-07-08T10:39:23.054Z,29.4
2018-07-08T10:40:23.053Z,29.65
2018-07-08T10:41:23.318Z,30.08
2018-07-08T10:42:23.054Z,30.62
2018-07-08T10:43:23.197Z,31.01
2018-07-08T10:44:22.802Z,31.33
2018-07-08T10:45:23.331Z,31.68
2018-07-08T10:46:23.072Z,31.77
2018-07-08T10:47:23.332Z,31.95
2018-07-08T10:48:23.080Z,32.25
2018-07-08T10:49:23.344Z,32.58
2018-07-08T10:50:23.090Z,32.2
2018-07-08T10:51:22.824Z,32.17
2018-07-08T10:52:23.357Z,32.37
2018-07-08T10:53:23.102Z,32.55
2018-07-08T10:54:23.378Z,32.86
2018-07-08T10:55:23.192Z,32.86
2018-07-08T10:56:23.115Z,33.07
2018-07-08T10:57:23.386Z,33.01
2018-07-08T10:58:22.867Z,33.06
2018-07-08T10:59:23.396Z,33.14
2018-07-08T11:00:23.137Z,33.14
2018-07-08T11:01:23.147Z,33.07
2018-07-08T11:02:23.144Z,33.19
2018-07-08T11:03:23.416Z,33.42
2018-07-08T11:04:23.425Z,33.46
2018-07-08T11:05:23.166Z,33.34
2018-07-08T11:06:23.446Z,33.15
2018-07-08T11:07:23.439Z,33.17
2018-07-08T11:08:23.184Z,33.39
2018-07-08T11:09:23.191Z,33.31
2018-07-08T11:10:23.192Z,32.73
2018-07-08T11:11:23.214Z,32.85
2018-07-08T11:12:23.470Z,32.99
2018-07-08T11:13:23.473Z,33.13
2018-07-08T11:14:22.954Z,33.17
2018-07-08T11:15:23.221Z,33.42
2018-07-08T11:16:23.492Z,33.68
2018-07-08T11:17:23.241Z,33.89
2018-07-08T11:18:22.986Z,33.8
2018-07-08T11:19:23.524Z,33.46
2018-07-08T11:20:23.261Z,33.37
2018-07-08T11:21:23.265Z,33.46
2018-07-08T11:22:23.275Z,33.58
2018-07-08T11:23:23.544Z,33.86
2018-07-08T11:24:23.290Z,34.05
2018-07-08T11:25:23.293Z,34.45
2018-07-08T11:26:23.557Z,34.46
2018-07-08T11:27:23.567Z,34.5
2018-07-08T11:28:23.314Z,34.64
2018-07-08T11:29:23.055Z,34.88
2018-07-08T11:30:23.331Z,35.1
2018-07-08T11:31:23.598Z,35.21
2018-07-08T11:32:23.089Z,35.15
2018-07-08T11:33:23.610Z,35.14
2018-07-08T11:34:23.361Z,34.84
2018-07-08T11:35:23.366Z,34.81
2018-07-08T11:36:23.634Z,34.96
2018-07-08T11:37:23.109Z,34.86
2018-07-08T11:38:23.653Z,34.94
2018-07-08T11:39:23.653Z,34.91
2018-07-08T11:40:23.407Z,34.74
2018-07-08T11:41:23.676Z,34.58
2018-07-08T11:42:23.420Z,34.42
2018-07-08T11:43:23.694Z,34.46
2018-07-08T11:44:23.166Z,34.39
2018-07-08T11:45:23.446Z,34.14
2018-07-08T11:46:23.715Z,34.04
2018-07-08T11:47:23.389Z,34.01
2018-07-08T11:48:23.197Z,34.02
2018-07-08T11:49:23.463Z,34.41
2018-07-08T11:50:23.739Z,34.74
2018-07-08T11:51:23.754Z,34.98
2018-07-08T11:52:23.488Z,35.2
2018-07-08T11:53:23.499Z,35.1
2018-07-08T11:54:23.767Z,34.95
2018-07-08T11:55:23.900Z,35.1
2018-07-08T11:56:23.521Z,35.02
2018-07-08T11:57:23.531Z,35.13
2018-07-08T11:58:23.803Z,35.33
2018-07-08T11:59:23.809Z,35.52
2018-07-08T12:00:23.550Z,35.67
2018-07-08T12:01:23.294Z,35.57
2018-07-08T12:02:23.564Z,34.91
2018-07-08T12:03:23.577Z,34.83
2018-07-08T12:04:23.844Z,34.81
2018-07-08T12:05:23.905Z,34.81
2018-07-08T12:06:23.722Z,35.01
2018-07-08T12:07:23.602Z,35.08
2018-07-08T12:08:23.883Z,34.91
2018-07-08T12:09:23.621Z,34.91
2018-07-08T12:10:23.897Z,35.02
2018-07-08T12:11:23.640Z,35.07
2018-07-08T12:12:23.381Z,35.03
2018-07-08T12:13:23.919Z,35.17
2018-07-08T12:14:23.410Z,35.32
2018-07-08T12:15:23.939Z,35.4
2018-07-08T12:16:23.935Z,35.47
2018-07-08T12:17:23.947Z,35.07
2018-07-08T12:18:23.960Z,34.84
2018-07-08T12:19:23.704Z,34.92
2018-07-08T12:20:23.447Z,34.84
2018-07-08T12:21:23.824Z,35.06
2018-07-08T12:22:23.722Z,35.23
2018-07-08T12:23:23.996Z,35.17
2018-07-08T12:24:23.730Z,35.45
2018-07-08T12:25:23.748Z,35.74
2018-07-08T12:26:24.021Z,35.82
2018-07-08T12:27:23.759Z,36.21
2018-07-08T12:28:24.044Z,36.46
2018-07-08T12:29:23.779Z,36.56
2018-07-08T12:30:24.047Z,36.67
2018-07-08T12:31:24.052Z,36.2
2018-07-08T12:32:24.065Z,35.88
2018-07-08T12:33:24.074Z,35.99
2018-07-08T12:34:23.810Z,36.07
2018-07-08T12:35:24.092Z,36.26
2018-07-08T12:36:23.833Z,36.43
2018-07-08T12:37:23.835Z,36.58
2018-07-08T12:38:23.848Z,36.39
2018-07-08T12:39:24.127Z,36.07
2018-07-08T12:40:23.868Z,35.84
2018-07-08T12:41:23.873Z,35.92
2018-07-08T12:42:23.893Z,36.17
2018-07-08T12:43:24.152Z,36.39
2018-07-08T12:44:24.045Z,36.6
2018-07-08T12:45:23.905Z,36.72
2018-07-08T12:46:24.172Z,36.57
2018-07-08T12:47:23.920Z,36.46
2018-07-08T12:48:23.928Z,36.56
2018-07-08T12:49:24.213Z,36.39
2018-07-08T12:50:23.952Z,36.57
2018-07-08T12:51:24.035Z,36.33
2018-07-08T12:52:24.229Z,36.06
2018-07-08T12:53:24.238Z,35.89
2018-07-08T12:54:23.711Z,35.76